createdAt,value
2018-12-04T00:00:50.674Z,1000.04
2018-12-04T00:01:50.652Z,1000.06
2018-12-04T00:02:50.649Z,1000.06
2018-12-04T00:03:50.647Z,1000.05
2018-12-04T00:04:50.659Z,1000.09
2018-12-04T00:05:50.659Z,1000.13
2018-12-04T00:06:50.656Z,1000.16
2018-12-04T00:07:50.651Z,1000.20
2018-12-04T00:08:50.662Z,1000.25
2018-12-04T00:09:50.665Z,1000.24
2018-12-04T00:10:50.660Z,1000.27
2018-12-04T00:11:50.650Z,1000.28
2018-12-04T00:12:50.646Z,1000.34
2018-12-04T00:13:50.645Z,1000.38
2018-12-04T00:14:50.643Z,1000.44
2018-12-04T00:15:50.653Z,1000.46
2018-12-04T00:16:50.656Z,1000.51
2018-12-04T00:17:50.651Z,1000.53
2018-12-04T00:18:50.651Z,1000.60
2018-12-04T00:19:50.659Z,1000.62
2018-12-04T00:20:50.651Z,1000.66
2018-12-04T00:21:50.639Z,1000.68
2018-12-04T00:22:50.651Z,1000.71
2018-12-04T00:23:50.656Z,1000.70
2018-12-04T00:24:50.648Z,1000.78
2018-12-04T00:25:50.648Z,1000.78
2018-12-04T00:26:50.645Z,1000.82
2018-12-04T00:27:50.651Z,1000.83
2018-12-04T00:28:50.656Z,1000.87
2018-12-04T00:29:50.645Z,1000.91
2018-12-04T00:30:50.632Z,1000.97
2018-12-04T00:31:50.664Z,1000.97
2018-12-04T00:32:50.702Z,1001.01
2018-12-04T00:33:50.643Z,1000.97
2018-12-04T00:34:50.641Z,1001.07
2018-12-04T00:35:50.659Z,1001.05
2018-12-04T00:36:50.664Z,1001.11
2018-12-04T00:37:50.639Z,1001.11
2018-12-04T00:38:50.662Z,1001.15
2018-12-04T00:39:50.644Z,1001.16
2018-12-04T00:40:50.658Z,1001.21
2018-12-04T00:41:50.661Z,1001.24
2018-12-04T00:42:50.636Z,1001.27
2018-12-04T00:43:50.638Z,1001.27
2018-12-04T00:44:50.654Z,1001.27
2018-12-04T00:45:50.636Z,1001.28
2018-12-04T00:46:50.664Z,1001.31
2018-12-04T00:47:50.629Z,1001.30
2018-12-04T00:48:50.641Z,1001.35
2018-12-04T00:49:50.626Z,1001.32
2018-12-04T00:50:50.646Z,1001.33
2018-12-04T00:51:50.648Z,1001.43
2018-12-04T00:52:50.642Z,1001.46
2018-12-04T00:53:50.656Z,1001.42
2018-12-04T00:54:50.647Z,1001.48
2018-12-04T00:55:50.625Z,1001.53
2018-12-04T00:56:50.624Z,1001.54
2018-12-04T00:57:50.628Z,1001.56
2018-12-04T00:58:50.640Z,1001.63
2018-12-04T00:59:50.624Z,1001.67
2018-12-04T01:00:50.624Z,1001.66
2018-12-04T01:01:50.623Z,1001.82
2018-12-04T01:02:50.631Z,1001.82
2018-12-04T01:03:50.620Z,1001.82
2018-12-04T01:04:50.630Z,1001.87
2018-12-04T01:05:50.621Z,1001.94
2018-12-04T01:06:50.620Z,1001.96
2018-12-04T01:07:50.636Z,1001.96
2018-12-04T01:08:50.615Z,1002.02
2018-12-04T01:09:50.649Z,1001.99
2018-12-04T01:10:50.632Z,1002.08
2018-12-04T01:11:50.620Z,1002.07
2018-12-04T01:12:50.633Z,1002.02
2018-12-04T01:13:50.625Z,1002.09
2018-12-04T01:14:50.618Z,1002.12
2018-12-04T01:15:50.620Z,1002.19
2018-12-04T01:16:50.622Z,1002.25
2018-12-04T01:17:50.629Z,1002.27
2018-12-04T01:18:50.624Z,1002.30
2018-12-04T01:19:50.622Z,1002.30
2018-12-04T01:20:50.637Z,1002.35
2018-12-04T01:21:50.612Z,1002.36
2018-12-04T01:22:50.621Z,1002.39
2018-12-04T01:23:50.609Z,1002.46
2018-12-04T01:24:50.609Z,1002.53
2018-12-04T01:25:50.631Z,1002.56
2018-12-04T01:26:50.633Z,1002.58
2018-12-04T01:27:50.623Z,1002.68
2018-12-04T01:28:50.619Z,1002.73
2018-12-04T01:29:50.611Z,1002.75
2018-12-04T01:30:50.613Z,1002.75
2018-12-04T01:31:50.603Z,1002.80
2018-12-04T01:32:50.611Z,1002.88
2018-12-04T01:33:50.614Z,1002.95
2018-12-04T01:34:50.600Z,1002.99
2018-12-04T01:35:50.625Z,1003.07
2018-12-04T01:36:50.615Z,1003.06
2018-12-04T01:37:50.632Z,1003.11
2018-12-04T01:38:50.939Z,1003.12
2018-12-04T01:39:51.071Z,1003.14
2018-12-04T01:40:50.636Z,1003.14
2018-12-04T01:41:51.533Z,1003.16
2018-12-04T01:42:50.612Z,1003.16
2018-12-04T01:43:50.635Z,1003.17
2018-12-04T01:44:51.141Z,1003.18
2018-12-04T01:45:50.653Z,1003.22
2018-12-04T01:46:50.618Z,1003.23
2018-12-04T01:47:50.640Z,1003.21
2018-12-04T01:48:50.592Z,1003.26
2018-12-04T01:49:50.591Z,1003.25
2018-12-04T01:50:50.623Z,1003.25
2018-12-04T01:51:50.610Z,1003.31
2018-12-04T01:52:50.605Z,1003.28
2018-12-04T01:53:50.590Z,1003.30
2018-12-04T01:54:50.617Z,1003.32
2018-12-04T01:55:50.607Z,1003.36
2018-12-04T01:56:50.586Z,1003.39
2018-12-04T01:57:50.615Z,1003.44
2018-12-04T01:58:50.600Z,1003.52
2018-12-04T01:59:50.600Z,1003.54
2018-12-04T02:00:50.596Z,1003.57
2018-12-04T02:01:50.590Z,1003.63
2018-12-04T02:02:50.597Z,1003.64
2018-12-04T02:03:50.621Z,1003.61
2018-12-04T02:04:50.594Z,1003.64
2018-12-04T02:05:50.604Z,1003.64
2018-12-04T02:06:50.581Z,1003.61
2018-12-04T02:07:50.601Z,1003.64
2018-12-04T02:08:50.602Z,1003.69
2018-12-04T02:09:50.597Z,1003.67
2018-12-04T02:10:50.612Z,1003.70
2018-12-04T02:11:50.608Z,1003.73
2018-12-04T02:12:50.584Z,1003.78
2018-12-04T02:13:50.588Z,1003.78
2018-12-04T02:14:50.595Z,1003.83
2018-12-04T02:15:50.572Z,1003.85
2018-12-04T02:16:50.596Z,1003.87
2018-12-04T02:17:50.579Z,1003.91
2018-12-04T02:18:50.583Z,1003.94
2018-12-04T02:19:50.575Z,1003.98
2018-12-04T02:20:50.593Z,1003.94
2018-12-04T02:21:50.578Z,1004.02
2018-12-04T02:22:50.594Z,1004.05
2018-12-04T02:23:50.599Z,1004.05
2018-12-04T02:24:50.601Z,1004.10
2018-12-04T02:25:50.572Z,1004.12
2018-12-04T02:26:50.583Z,1004.19
2018-12-04T02:27:50.577Z,1004.20
2018-12-04T02:28:50.569Z,1004.23
2018-12-04T02:29:50.570Z,1004.22
2018-12-04T02:30:50.567Z,1004.25
2018-12-04T02:31:50.576Z,1004.30
2018-12-04T02:32:50.561Z,1004.24
2018-12-04T02:33:50.562Z,1004.23
2018-12-04T02:34:50.588Z,1004.23
2018-12-04T02:35:50.574Z,1004.30
2018-12-04T02:36:50.583Z,1004.33
2018-12-04T02:37:50.596Z,1004.37
2018-12-04T02:38:50.581Z,1004.39
2018-12-04T02:39:50.575Z,1004.43
2018-12-04T02:40:50.582Z,1004.51
2018-12-04T02:41:50.577Z,1004.44
2018-12-04T02:42:50.577Z,1004.50
2018-12-04T02:43:50.560Z,1004.51
2018-12-04T02:44:50.560Z,1004.53
2018-12-04T02:45:50.561Z,1004.57
2018-12-04T02:46:50.557Z,1004.59
2018-12-04T02:47:50.557Z,1004.60
2018-12-04T02:48:50.591Z,1004.59
2018-12-04T02:49:50.559Z,1004.65
2018-12-04T02:50:50.583Z,1004.65
2018-12-04T02:51:50.561Z,1004.69
2018-12-04T02:52:50.564Z,1004.69
2018-12-04T02:53:50.578Z,1004.76
2018-12-04T02:54:50.556Z,1004.78
2018-12-04T02:55:50.563Z,1004.79
2018-12-04T02:56:50.550Z,1004.83
2018-12-04T02:57:50.571Z,1004.80
2018-12-04T02:58:50.555Z,1004.85
2018-12-04T02:59:50.558Z,1004.83
2018-12-04T03:00:50.575Z,1004.89
2018-12-04T03:01:50.544Z,1004.84
2018-12-04T03:02:50.551Z,1004.95
2018-12-04T03:03:50.571Z,1004.94
2018-12-04T03:04:50.558Z,1004.96
2018-12-04T03:05:50.553Z,1004.91
2018-12-04T03:06:50.544Z,1004.95
2018-12-04T03:07:50.558Z,1004.99
2018-12-04T03:08:50.558Z,1004.99
2018-12-04T03:09:50.557Z,1005.03
2018-12-04T03:10:50.540Z,1005.01
2018-12-04T03:11:50.560Z,1005.07
2018-12-04T03:12:50.556Z,1005.11
2018-12-04T03:13:50.558Z,1005.05
2018-12-04T03:14:50.555Z,1005.10
2018-12-04T03:15:50.547Z,1005.07
2018-12-04T03:16:50.538Z,1005.08
2018-12-04T03:17:50.539Z,1005.10
2018-12-04T03:18:50.542Z,1005.07
2018-12-04T03:19:50.553Z,1005.09
2018-12-04T03:20:52.466Z,1005.14
2018-12-04T03:21:50.565Z,1005.14
2018-12-04T03:22:50.537Z,1005.18
2018-12-04T03:23:50.538Z,1005.21
2018-12-04T03:24:50.576Z,1005.25
2018-12-04T03:25:50.537Z,1005.27
2018-12-04T03:26:50.552Z,1005.28
2018-12-04T03:27:50.537Z,1005.31
2018-12-04T03:28:50.537Z,1005.32
2018-12-04T03:29:50.539Z,1005.33
2018-12-04T03:30:50.552Z,1005.35
2018-12-04T03:31:50.543Z,1005.41
2018-12-04T03:32:50.535Z,1005.41
2018-12-04T03:33:50.524Z,1005.40
2018-12-04T03:34:50.537Z,1005.43
2018-12-04T03:35:50.542Z,1005.45
2018-12-04T03:36:50.538Z,1005.45
2018-12-04T03:37:50.548Z,1005.42
2018-12-04T03:38:50.523Z,1005.45
2018-12-04T03:39:50.539Z,1005.50
2018-12-04T03:40:50.553Z,1005.51
2018-12-04T03:41:50.534Z,1005.53
2018-12-04T03:42:50.552Z,1005.54
2018-12-04T03:43:50.528Z,1005.54
2018-12-04T03:44:50.544Z,1005.56
2018-12-04T03:45:50.527Z,1005.58
2018-12-04T03:46:50.521Z,1005.59
2018-12-04T03:47:50.534Z,1005.64
2018-12-04T03:48:50.528Z,1005.66
2018-12-04T03:49:50.566Z,1005.71
2018-12-04T03:50:50.534Z,1005.72
2018-12-04T03:51:50.567Z,1005.78
2018-12-04T03:52:50.528Z,1005.80
2018-12-04T03:53:50.536Z,1005.79
2018-12-04T03:54:50.532Z,1005.80
2018-12-04T03:55:50.512Z,1005.78
2018-12-04T03:56:50.542Z,1005.83
2018-12-04T03:57:50.521Z,1005.85
2018-12-04T03:58:50.528Z,1005.89
2018-12-04T03:59:50.513Z,1005.85
2018-12-04T04:00:50.512Z,1005.86
2018-12-04T04:01:50.518Z,1005.86
2018-12-04T04:02:50.521Z,1005.91
2018-12-04T04:03:50.517Z,1005.94
2018-12-04T04:04:50.529Z,1005.91
2018-12-04T04:05:50.508Z,1005.89
2018-12-04T04:06:50.532Z,1005.95
2018-12-04T04:07:50.518Z,1005.96
2018-12-04T04:08:50.542Z,1005.92
2018-12-04T04:09:50.506Z,1005.90
2018-12-04T04:10:50.513Z,1005.94
2018-12-04T04:11:50.519Z,1005.97
2018-12-04T04:12:50.519Z,1006.01
2018-12-04T04:13:50.511Z,1006.04
2018-12-04T04:14:50.513Z,1006.07
2018-12-04T04:15:50.510Z,1006.07
2018-12-04T04:16:50.507Z,1006.05
2018-12-04T04:17:50.505Z,1006.08
2018-12-04T04:18:50.523Z,1006.13
2018-12-04T04:19:50.533Z,1006.15
2018-12-04T04:20:50.510Z,1006.12
2018-12-04T04:21:50.514Z,1006.15
2018-12-04T04:22:50.506Z,1006.16
2018-12-04T04:23:50.507Z,1006.23
2018-12-04T04:24:50.506Z,1006.27
2018-12-04T04:25:50.508Z,1006.25
2018-12-04T04:26:50.519Z,1006.29
2018-12-04T04:27:50.493Z,1006.32
2018-12-04T04:28:50.503Z,1006.36
2018-12-04T04:29:50.503Z,1006.36
2018-12-04T04:30:50.505Z,1006.38
2018-12-04T04:31:50.514Z,1006.41
2018-12-04T04:32:50.498Z,1006.46
2018-12-04T04:33:50.489Z,1006.45
2018-12-04T04:34:50.504Z,1006.48
2018-12-04T04:35:50.489Z,1006.51
2018-12-04T04:36:50.493Z,1006.53
2018-12-04T04:37:50.496Z,1006.53
2018-12-04T04:38:50.492Z,1006.58
2018-12-04T04:39:50.497Z,1006.58
2018-12-04T04:40:50.488Z,1006.61
2018-12-04T04:41:50.484Z,1006.61
2018-12-04T04:42:50.492Z,1006.63
2018-12-04T04:43:50.495Z,1006.67
2018-12-04T04:44:50.519Z,1006.72
2018-12-04T04:45:50.495Z,1006.72
2018-12-04T04:46:50.509Z,1006.74
2018-12-04T04:47:50.516Z,1006.74
2018-12-04T04:48:50.508Z,1006.77
2018-12-04T04:49:50.485Z,1006.80
2018-12-04T04:50:50.479Z,1006.77
2018-12-04T04:51:50.486Z,1006.80
2018-12-04T04:52:50.476Z,1006.84
2018-12-04T04:53:50.475Z,1006.90
2018-12-04T04:54:50.479Z,1006.88
2018-12-04T04:55:50.480Z,1006.94
2018-12-04T04:56:50.488Z,1006.89
2018-12-04T04:57:50.478Z,1006.92
2018-12-04T04:58:50.472Z,1006.94
2018-12-04T04:59:50.482Z,1006.93
2018-12-04T05:00:50.472Z,1006.96
2018-12-04T05:01:50.467Z,1007.00
2018-12-04T05:02:50.472Z,1006.94
2018-12-04T05:03:50.478Z,1006.98
2018-12-04T05:04:50.467Z,1007.03
2018-12-04T05:05:50.469Z,1007.09
2018-12-04T05:06:50.468Z,1007.09
2018-12-04T05:07:50.477Z,1007.12
2018-12-04T05:08:50.471Z,1007.14
2018-12-04T05:09:50.474Z,1007.19
2018-12-04T05:10:50.520Z,1007.23
2018-12-04T05:11:50.470Z,1007.27
2018-12-04T05:12:50.465Z,1007.26
2018-12-04T05:13:50.481Z,1007.25
2018-12-04T05:14:50.473Z,1007.29
2018-12-04T05:15:50.473Z,1007.30
2018-12-04T05:16:50.447Z,1007.29
2018-12-04T05:17:50.452Z,1007.33
2018-12-04T05:18:50.446Z,1007.34
2018-12-04T05:19:50.457Z,1007.36
2018-12-04T05:20:50.472Z,1007.36
2018-12-04T05:21:50.461Z,1007.45
2018-12-04T05:22:50.458Z,1007.46
2018-12-04T05:23:50.443Z,1007.48
2018-12-04T05:24:50.468Z,1007.47
2018-12-04T05:25:50.440Z,1007.53
2018-12-04T05:26:50.441Z,1007.51
2018-12-04T05:27:50.459Z,1007.54
2018-12-04T05:28:50.453Z,1007.62
2018-12-04T05:29:50.432Z,1007.62
2018-12-04T05:30:50.441Z,1007.66
2018-12-04T05:31:50.455Z,1007.70
2018-12-04T05:32:50.430Z,1007.70
2018-12-04T05:33:50.447Z,1007.70
2018-12-04T05:34:50.445Z,1007.70
2018-12-04T05:35:50.422Z,1007.69
2018-12-04T05:36:50.446Z,1007.75
2018-12-04T05:37:50.436Z,1007.76
2018-12-04T05:38:50.438Z,1007.77
2018-12-04T05:39:50.424Z,1007.81
2018-12-04T05:40:50.446Z,1007.82
2018-12-04T05:41:50.453Z,1007.84
2018-12-04T05:42:50.415Z,1007.87
2018-12-04T05:43:50.423Z,1007.90
2018-12-04T05:44:50.429Z,1007.90
2018-12-04T05:45:50.425Z,1007.96
2018-12-04T05:46:50.429Z,1007.94
2018-12-04T05:47:50.412Z,1007.95
2018-12-04T05:48:50.451Z,1007.97
2018-12-04T05:49:50.411Z,1008.00
2018-12-04T05:50:50.429Z,1008.03
2018-12-04T05:51:50.411Z,1008.05
2018-12-04T05:52:50.413Z,1008.09
2018-12-04T05:53:50.407Z,1008.09
2018-12-04T05:54:50.428Z,1008.11
2018-12-04T05:55:50.410Z,1008.15
2018-12-04T05:56:50.405Z,1008.21
2018-12-04T05:57:50.413Z,1008.20
2018-12-04T05:58:50.406Z,1008.24
2018-12-04T05:59:50.454Z,1008.23
2018-12-04T06:00:50.393Z,1008.29
2018-12-04T06:01:50.414Z,1008.30
2018-12-04T06:02:50.414Z,1008.33
2018-12-04T06:03:50.434Z,1008.35
2018-12-04T06:04:50.412Z,1008.41
2018-12-04T06:05:50.401Z,1008.41
2018-12-04T06:06:50.408Z,1008.42
2018-12-04T06:07:50.392Z,1008.41
2018-12-04T06:08:50.392Z,1008.43
2018-12-04T06:09:50.417Z,1008.46
2018-12-04T06:10:50.393Z,1008.48
2018-12-04T06:11:50.384Z,1008.50
2018-12-04T06:12:50.385Z,1008.50
2018-12-04T06:13:50.386Z,1008.55
2018-12-04T06:14:50.378Z,1008.61
2018-12-04T06:15:50.381Z,1008.67
2018-12-04T06:16:50.382Z,1008.71
2018-12-04T06:17:50.396Z,1008.71
2018-12-04T06:18:50.388Z,1008.75
2018-12-04T06:19:50.392Z,1008.75
2018-12-04T06:20:50.381Z,1008.74
2018-12-04T06:21:50.385Z,1008.75
2018-12-04T06:22:50.405Z,1008.79
2018-12-04T06:23:50.391Z,1008.80
2018-12-04T06:24:50.415Z,1008.83
2018-12-04T06:25:50.381Z,1008.88
2018-12-04T06:26:50.391Z,1008.86
2018-12-04T06:27:50.363Z,1008.92
2018-12-04T06:28:50.376Z,1008.95
2018-12-04T06:29:50.360Z,1009.01
2018-12-04T06:30:50.357Z,1009.00
2018-12-04T06:31:50.386Z,1009.06
2018-12-04T06:32:50.357Z,1009.07
2018-12-04T06:33:50.384Z,1009.12
2018-12-04T06:34:50.354Z,1009.16
2018-12-04T06:35:50.361Z,1009.16
2018-12-04T06:36:50.345Z,1009.21
2018-12-04T06:37:50.344Z,1009.24
2018-12-04T06:38:50.371Z,1009.24
2018-12-04T06:39:50.359Z,1009.24
2018-12-04T06:40:50.355Z,1009.29
2018-12-04T06:41:50.335Z,1009.28
2018-12-04T06:42:50.349Z,1009.31
2018-12-04T06:43:50.354Z,1009.32
2018-12-04T06:44:50.344Z,1009.35
2018-12-04T06:45:50.391Z,1009.32
2018-12-04T06:46:50.332Z,1009.34
2018-12-04T06:47:50.342Z,1009.35
2018-12-04T06:48:50.346Z,1009.39
2018-12-04T06:49:50.337Z,1009.41
2018-12-04T06:50:50.323Z,1009.46
2018-12-04T06:51:50.340Z,1009.51
2018-12-04T06:52:50.332Z,1009.51
2018-12-04T06:53:50.368Z,1009.56
2018-12-04T06:54:50.317Z,1009.56
2018-12-04T06:55:50.324Z,1009.56
2018-12-04T06:56:50.322Z,1009.61
2018-12-04T06:57:50.367Z,1009.61
2018-12-04T06:58:50.326Z,1009.63
2018-12-04T06:59:50.317Z,1009.65
2018-12-04T07:00:50.334Z,1009.66
2018-12-04T07:01:50.342Z,1009.68
2018-12-04T07:02:50.316Z,1009.76
2018-12-04T07:03:50.320Z,1009.81
2018-12-04T07:04:50.310Z,1009.84
2018-12-04T07:05:50.307Z,1009.92
2018-12-04T07:06:50.310Z,1009.94
2018-12-04T07:07:52.037Z,1010.00
2018-12-04T07:08:50.301Z,1010.03
2018-12-04T07:09:50.307Z,1010.08
2018-12-04T07:10:50.321Z,1010.11
2018-12-04T07:11:50.312Z,1010.13
2018-12-04T07:12:50.313Z,1010.14
2018-12-04T07:13:50.304Z,1010.19
2018-12-04T07:14:50.345Z,1010.20
2018-12-04T07:15:50.341Z,1010.18
2018-12-04T07:16:50.454Z,1010.20
2018-12-04T07:17:50.301Z,1010.27
2018-12-04T07:18:50.299Z,1010.30
2018-12-04T07:19:50.298Z,1010.34
2018-12-04T07:20:50.309Z,1010.31
2018-12-04T07:21:50.292Z,1010.30
2018-12-04T07:22:50.307Z,1010.35
2018-12-04T07:23:50.297Z,1010.35
2018-12-04T07:24:50.304Z,1010.39
2018-12-04T07:25:50.330Z,1010.43
2018-12-04T07:26:50.325Z,1010.46
2018-12-04T07:27:50.277Z,1010.51
2018-12-04T07:28:50.286Z,1010.53
2018-12-04T07:29:50.304Z,1010.55
2018-12-04T07:30:50.285Z,1010.53
2018-12-04T07:31:50.310Z,1010.54
2018-12-04T07:32:50.293Z,1010.58
2018-12-04T07:33:50.274Z,1010.57
2018-12-04T07:34:50.283Z,1010.58
2018-12-04T07:35:50.302Z,1010.62
2018-12-04T07:36:50.290Z,1010.66
2018-12-04T07:37:50.257Z,1010.66
2018-12-04T07:38:50.291Z,1010.65
2018-12-04T07:39:50.316Z,1010.65
2018-12-04T07:40:50.264Z,1010.68
2018-12-04T07:41:50.264Z,1010.70
2018-12-04T07:42:50.270Z,1010.75
2018-12-04T07:43:50.270Z,1010.74
2018-12-04T07:44:50.265Z,1010.74
2018-12-04T07:45:50.258Z,1010.75
2018-12-04T07:46:50.257Z,1010.76
2018-12-04T07:47:50.255Z,1010.76
2018-12-04T07:48:50.275Z,1010.84
2018-12-04T07:49:50.270Z,1010.83
2018-12-04T07:50:50.253Z,1010.89
2018-12-04T07:51:50.270Z,1010.85
2018-12-04T07:52:50.285Z,1010.88
2018-12-04T07:53:50.280Z,1010.91
2018-12-04T07:54:50.287Z,1010.93
2018-12-04T07:55:50.244Z,1010.94
2018-12-04T07:56:50.253Z,1011.02
2018-12-04T07:57:50.396Z,1011.04
2018-12-04T07:58:50.250Z,1011.08
2018-12-04T07:59:50.278Z,1011.07
2018-12-04T08:00:50.271Z,1011.09
2018-12-04T08:01:50.266Z,1011.09
2018-12-04T08:02:50.234Z,1011.09
2018-12-04T08:03:50.259Z,1011.13
2018-12-04T08:04:50.229Z,1011.14
2018-12-04T08:05:50.224Z,1011.17
2018-12-04T08:06:50.238Z,1011.19
2018-12-04T08:07:50.242Z,1011.25
2018-12-04T08:08:50.237Z,1011.26
2018-12-04T08:09:50.242Z,1011.27
2018-12-04T08:10:51.065Z,1011.34
2018-12-04T08:11:50.272Z,1011.34
2018-12-04T08:12:51.537Z,1011.38
2018-12-04T08:13:50.256Z,1011.42
2018-12-04T08:14:50.228Z,1011.46
2018-12-04T08:15:50.232Z,1011.44
2018-12-04T08:16:50.247Z,1011.50
2018-12-04T08:17:50.211Z,1011.52
2018-12-04T08:18:50.231Z,1011.57
2018-12-04T08:19:50.252Z,1011.58
2018-12-04T08:20:50.224Z,1011.68
2018-12-04T08:21:50.209Z,1011.71
2018-12-04T08:22:50.220Z,1011.71
2018-12-04T08:23:50.226Z,1011.74
2018-12-04T08:24:50.233Z,1011.75
2018-12-04T08:25:50.227Z,1011.80
2018-12-04T08:26:50.234Z,1011.86
2018-12-04T08:27:50.206Z,1011.84
2018-12-04T08:28:50.227Z,1011.91
2018-12-04T08:29:50.189Z,1011.98
2018-12-04T08:30:50.190Z,1012.02
2018-12-04T08:31:50.217Z,1012.02
2018-12-04T08:32:50.189Z,1012.04
2018-12-04T08:33:50.213Z,1012.08
2018-12-04T08:34:50.276Z,1012.14
2018-12-04T08:35:50.194Z,1012.16
2018-12-04T08:36:50.194Z,1012.17
2018-12-04T08:37:50.192Z,1012.20
2018-12-04T08:38:50.192Z,1012.20
2018-12-04T08:39:50.213Z,1012.18
2018-12-04T08:40:50.191Z,1012.17
2018-12-04T08:41:50.195Z,1012.25
2018-12-04T08:42:50.195Z,1012.20
2018-12-04T08:43:50.186Z,1012.24
2018-12-04T08:44:50.200Z,1012.26
2018-12-04T08:45:50.239Z,1012.29
2018-12-04T08:46:50.322Z,1012.29
2018-12-04T08:47:50.186Z,1012.39
2018-12-04T08:48:50.194Z,1012.41
2018-12-04T08:49:50.418Z,1012.45
2018-12-04T08:50:50.253Z,1012.51
2018-12-04T08:51:50.216Z,1012.50
2018-12-04T08:52:50.214Z,1012.56
2018-12-04T08:53:50.235Z,1012.57
2018-12-04T08:54:50.237Z,1012.54
2018-12-04T08:55:50.192Z,1012.59
2018-12-04T08:56:50.208Z,1012.57
2018-12-04T08:57:50.235Z,1012.63
2018-12-04T08:58:50.203Z,1012.61
2018-12-04T08:59:50.238Z,1012.66
2018-12-04T09:00:50.207Z,1012.68
2018-12-04T09:01:50.215Z,1012.75
2018-12-04T09:02:50.212Z,1012.80
2018-12-04T09:03:50.259Z,1012.75
2018-12-04T09:04:50.211Z,1012.80
2018-12-04T09:05:50.204Z,1012.87
2018-12-04T09:06:50.280Z,1012.89
2018-12-04T09:07:50.216Z,1012.94
2018-12-04T09:08:50.312Z,1013.01
2018-12-04T09:09:50.228Z,1013.00
2018-12-04T09:10:50.229Z,1013.04
2018-12-04T09:11:50.215Z,1013.01
2018-12-04T09:12:50.229Z,1013.04
2018-12-04T09:13:50.343Z,1013.05
2018-12-04T09:14:50.254Z,1013.10
2018-12-04T09:15:50.913Z,1013.09
2018-12-04T09:16:50.291Z,1013.17
2018-12-04T09:17:51.290Z,1013.18
2018-12-04T09:18:51.059Z,1013.19
2018-12-04T09:19:50.285Z,1013.18
2018-12-04T09:20:50.245Z,1013.21
2018-12-04T09:21:50.259Z,1013.22
2018-12-04T09:22:50.308Z,1013.23
2018-12-04T09:23:50.306Z,1013.23
2018-12-04T09:24:50.271Z,1013.27
2018-12-04T09:25:50.239Z,1013.33
2018-12-04T09:26:50.277Z,1013.33
2018-12-04T09:27:50.249Z,1013.33
2018-12-04T09:28:50.286Z,1013.32
2018-12-04T09:29:50.295Z,1013.35
2018-12-04T09:30:50.239Z,1013.38
2018-12-04T09:31:50.245Z,1013.40
2018-12-04T09:32:50.244Z,1013.35
2018-12-04T09:33:50.249Z,1013.40
2018-12-04T09:34:50.252Z,1013.42
2018-12-04T09:35:50.252Z,1013.45
2018-12-04T09:36:50.249Z,1013.48
2018-12-04T09:37:50.274Z,1013.54
2018-12-04T09:38:50.251Z,1013.55
2018-12-04T09:39:50.303Z,1013.61
2018-12-04T09:40:50.261Z,1013.63
2018-12-04T09:41:50.277Z,1013.68
2018-12-04T09:42:50.279Z,1013.64
2018-12-04T09:43:50.250Z,1013.63
2018-12-04T09:44:50.269Z,1013.69
2018-12-04T09:45:50.268Z,1013.72
2018-12-04T09:46:50.331Z,1013.75
2018-12-04T09:47:50.262Z,1013.75
2018-12-04T09:48:50.257Z,1013.76
2018-12-04T09:49:50.268Z,1013.79
2018-12-04T09:50:50.264Z,1013.84
2018-12-04T09:51:50.271Z,1013.86
2018-12-04T09:52:50.282Z,1013.85
2018-12-04T09:53:52.173Z,1013.94
2018-12-04T09:54:50.560Z,1013.92
2018-12-04T09:55:50.436Z,1013.94
2018-12-04T09:56:50.346Z,1013.95
2018-12-04T09:57:51.224Z,1013.98
2018-12-04T09:58:50.362Z,1013.98
2018-12-04T09:59:50.621Z,1013.94
2018-12-04T10:00:50.349Z,1013.99
2018-12-04T10:01:50.461Z,1013.97
2018-12-04T10:02:50.271Z,1014.00
2018-12-04T10:03:50.266Z,1014.04
2018-12-04T10:04:50.564Z,1014.06
2018-12-04T10:05:50.266Z,1014.04
2018-12-04T10:06:50.275Z,1014.05
2018-12-04T10:07:50.476Z,1014.05
2018-12-04T10:08:50.724Z,1014.03
2018-12-04T10:09:50.652Z,1014.06
2018-12-04T10:10:51.285Z,1014.08
2018-12-04T10:11:50.355Z,1014.15
2018-12-04T10:12:50.523Z,1014.13
2018-12-04T10:13:50.278Z,1014.16
2018-12-04T10:14:50.285Z,1014.19
2018-12-04T10:15:50.367Z,1014.22
2018-12-04T10:16:50.326Z,1014.26
2018-12-04T10:17:50.934Z,1014.22
2018-12-04T10:18:50.309Z,1014.23
2018-12-04T10:19:50.277Z,1014.27
2018-12-04T10:20:50.330Z,1014.28
2018-12-04T10:21:50.324Z,1014.26
2018-12-04T10:22:50.283Z,1014.27
2018-12-04T10:23:50.291Z,1014.28
2018-12-04T10:24:50.299Z,1014.29
2018-12-04T10:25:50.300Z,1014.31
2018-12-04T10:26:50.287Z,1014.37
2018-12-04T10:27:50.295Z,1014.34
2018-12-04T10:28:50.305Z,1014.30
2018-12-04T10:29:50.295Z,1014.37
2018-12-04T10:30:50.311Z,1014.37
2018-12-04T10:31:55.941Z,1014.37
2018-12-04T10:32:50.358Z,1014.36
2018-12-04T10:33:50.309Z,1014.41
2018-12-04T10:34:50.303Z,1014.40
2018-12-04T10:35:50.300Z,1014.40
2018-12-04T10:36:50.330Z,1014.46
2018-12-04T10:37:50.334Z,1014.46
2018-12-04T10:38:50.311Z,1014.48
2018-12-04T10:39:50.326Z,1014.43
2018-12-04T10:40:50.347Z,1014.49
2018-12-04T10:41:50.313Z,1014.56
2018-12-04T10:42:52.071Z,1014.52
2018-12-04T10:43:50.326Z,1014.57
2018-12-04T10:44:50.326Z,1014.59
2018-12-04T10:45:50.327Z,1014.59
2018-12-04T10:46:50.318Z,1014.60
2018-12-04T10:47:50.404Z,1014.63
2018-12-04T10:48:50.324Z,1014.66
2018-12-04T10:49:50.365Z,1014.64
2018-12-04T10:50:50.395Z,1014.59
2018-12-04T10:51:50.421Z,1014.65
2018-12-04T10:52:50.341Z,1014.60
2018-12-04T10:53:50.350Z,1014.61
2018-12-04T10:54:50.360Z,1014.59
2018-12-04T10:55:50.337Z,1014.59
2018-12-04T10:56:50.345Z,1014.62
2018-12-04T10:57:50.390Z,1014.62
2018-12-04T10:58:50.343Z,1014.69
2018-12-04T10:59:50.435Z,1014.72
2018-12-04T11:00:50.342Z,1014.78
2018-12-04T11:01:50.361Z,1014.78
2018-12-04T11:02:50.369Z,1014.79
2018-12-04T11:03:50.350Z,1014.79
2018-12-04T11:04:50.351Z,1014.78
2018-12-04T11:05:50.351Z,1014.80
2018-12-04T11:06:50.438Z,1014.79
2018-12-04T11:07:50.365Z,1014.82
2018-12-04T11:08:50.364Z,1014.84
2018-12-04T11:09:50.358Z,1014.84
2018-12-04T11:10:50.372Z,1014.89
2018-12-04T11:11:50.388Z,1014.92
2018-12-04T11:12:50.369Z,1014.95
2018-12-04T11:13:50.377Z,1014.94
2018-12-04T11:14:50.403Z,1014.94
2018-12-04T11:15:50.392Z,1014.92
2018-12-04T11:16:50.379Z,1014.91
2018-12-04T11:17:50.371Z,1014.91
2018-12-04T11:18:51.387Z,1014.95
2018-12-04T11:19:50.436Z,1014.93
2018-12-04T11:20:50.384Z,1014.96
2018-12-04T11:21:50.380Z,1014.99
2018-12-04T11:22:50.398Z,1014.96
2018-12-04T11:23:50.396Z,1014.99
2018-12-04T11:24:50.403Z,1015.02
2018-12-04T11:25:50.416Z,1015.02
2018-12-04T11:26:50.427Z,1015.04
2018-12-04T11:27:50.415Z,1015.04
2018-12-04T11:28:50.473Z,1015.03
2018-12-04T11:29:50.393Z,1014.97
2018-12-04T11:30:50.404Z,1015.07
2018-12-04T11:31:50.441Z,1015.04
2018-12-04T11:32:50.402Z,1015.07
2018-12-04T11:33:50.412Z,1015.06
2018-12-04T11:34:50.399Z,1015.04
2018-12-04T11:35:50.406Z,1015.05
2018-12-04T11:36:50.442Z,1015.07
2018-12-04T11:37:50.433Z,1015.06
2018-12-04T11:38:50.429Z,1015.06
2018-12-04T11:39:50.420Z,1015.08
2018-12-04T11:40:50.407Z,1015.11
2018-12-04T11:41:50.426Z,1015.17
2018-12-04T11:42:50.422Z,1015.21
2018-12-04T11:43:50.438Z,1015.26
2018-12-04T11:44:50.425Z,1015.24
2018-12-04T11:45:50.420Z,1015.31
2018-12-04T11:46:50.427Z,1015.29
2018-12-04T11:47:50.431Z,1015.28
2018-12-04T11:48:50.448Z,1015.28
2018-12-04T11:49:50.439Z,1015.31
2018-12-04T11:50:50.444Z,1015.26
2018-12-04T11:51:50.452Z,1015.30
2018-12-04T11:52:50.456Z,1015.36
2018-12-04T11:53:52.115Z,1015.33
2018-12-04T11:54:50.440Z,1015.34
2018-12-04T11:55:50.459Z,1015.30
2018-12-04T11:56:50.439Z,1015.28
2018-12-04T11:57:50.435Z,1015.33
2018-12-04T11:58:50.468Z,1015.33
2018-12-04T11:59:50.441Z,1015.35
2018-12-04T12:00:50.463Z,1015.38
2018-12-04T12:01:50.438Z,1015.35
2018-12-04T12:02:50.454Z,1015.32
2018-12-04T12:03:50.463Z,1015.35
2018-12-04T12:04:50.463Z,1015.38
2018-12-04T12:05:50.451Z,1015.42